createdAt,value
2018-09-14T00:01:08.186Z,99.90
2018-09-14T00:06:11.221Z,99.90
2018-09-14T00:11:14.225Z,99.90
2018-09-14T00:16:17.347Z,99.90
2018-09-14T00:21:20.360Z,99.90
2018-09-14T00:26:23.367Z,99.90
2018-09-14T00:31:26.386Z,99.90
2018-09-14T00:36:30.451Z,99.90
2018-09-14T00:41:33.449Z,99.90
2018-09-14T00:46:36.479Z,99.90
2018-09-14T00:51:39.495Z,99.90
2018-09-14T00:56:42.497Z,99.90
2018-09-14T01:01:45.501Z,99.90
2018-09-14T01:06:48.504Z,99.90
2018-09-14T01:11:51.519Z,99.90
2018-09-14T01:16:54.930Z,99.90
2018-09-14T01:21:57.923Z,99.90
2018-09-14T01:27:00.942Z,99.90
2018-09-14T01:32:03.943Z,99.90
2018-09-14T01:37:06.939Z,99.90
2018-09-14T01:42:09.951Z,99.90
2018-09-14T01:47:12.944Z,99.90
2018-09-14T01:52:15.970Z,99.90
2018-09-14T01:57:18.958Z,99.90
2018-09-14T02:02:21.979Z,99.90
2018-09-14T02:07:25.003Z,99.90
2018-09-14T02:12:28.006Z,99.90
2018-09-14T02:17:31.038Z,99.90
2018-09-14T02:22:34.050Z,99.90
2018-09-14T02:27:37.056Z,99.90
2018-09-14T02:32:40.255Z,99.90
2018-09-14T02:37:43.267Z,99.90
2018-09-14T02:42:46.284Z,99.90
2018-09-14T02:47:49.287Z,99.90
2018-09-14T02:52:52.301Z,99.90
2018-09-14T02:57:55.314Z,99.90
2018-09-14T03:02:58.324Z,99.90
2018-09-14T03:08:01.323Z,99.90
2018-09-14T03:13:04.300Z,99.90
2018-09-14T03:18:07.288Z,99.90
2018-09-14T03:23:10.301Z,99.90
2018-09-14T03:28:13.304Z,99.90
2018-09-14T03:33:16.312Z,99.90
2018-09-14T03:38:19.312Z,99.90
2018-09-14T03:43:22.380Z,99.90
2018-09-14T03:48:25.375Z,99.90
2018-09-14T03:53:28.410Z,99.90
2018-09-14T03:58:31.415Z,99.90
2018-09-14T04:03:34.441Z,99.90
2018-09-14T04:08:37.468Z,99.90
2018-09-14T04:13:40.476Z,99.90
2018-09-14T04:18:47.718Z,99.90
2018-09-14T04:23:50.842Z,99.90
2018-09-14T04:28:53.855Z,99.90
2018-09-14T04:33:56.919Z,99.90
2018-09-14T04:38:59.902Z,99.90
2018-09-14T04:44:02.930Z,99.90
2018-09-14T04:49:05.943Z,99.90
2018-09-14T04:54:08.939Z,99.90
2018-09-14T04:59:11.946Z,99.90
2018-09-14T05:04:14.970Z,99.90
2018-09-14T05:09:17.992Z,99.90
2018-09-14T05:14:21.081Z,99.90
2018-09-14T05:19:24.141Z,99.90
2018-09-14T05:24:27.221Z,99.90
2018-09-14T05:29:30.179Z,99.90
2018-09-14T05:34:33.251Z,99.90
2018-09-14T05:39:36.278Z,99.90
2018-09-14T05:44:39.418Z,99.90
2018-09-14T05:49:42.526Z,99.90
2018-09-14T05:54:45.636Z,99.90
2018-09-14T05:59:48.634Z,99.90
2018-09-14T06:04:51.699Z,99.90
2018-09-14T06:09:54.698Z,99.90
2018-09-14T06:14:57.696Z,99.90
2018-09-14T06:20:00.694Z,99.90
2018-09-14T06:25:03.711Z,99.90
2018-09-14T06:30:06.729Z,99.90
2018-09-14T06:35:09.896Z,99.90
2018-09-14T06:40:12.913Z,99.90
2018-09-14T06:45:15.991Z,99.90
2018-09-14T06:50:18.957Z,99.90
2018-09-14T06:55:21.998Z,99.90
2018-09-14T07:00:25.206Z,99.90
2018-09-14T07:05:28.108Z,99.90
2018-09-14T07:10:31.143Z,99.90
2018-09-14T07:15:34.207Z,99.90
2018-09-14T07:20:37.210Z,99.90
2018-09-14T07:25:40.273Z,99.90
2018-09-14T07:30:43.288Z,99.90
2018-09-14T07:35:46.355Z,99.90
2018-09-14T07:40:49.360Z,99.90
2018-09-14T07:45:52.754Z,99.90
2018-09-14T07:50:55.771Z,99.90
2018-09-14T07:55:58.771Z,99.80
2018-09-14T08:01:02.202Z,99.90
2018-09-14T08:06:05.258Z,98.70
2018-09-14T08:11:08.247Z,99.00
2018-09-14T08:16:11.294Z,97.80
2018-09-14T08:21:14.437Z,97.50
2018-09-14T08:26:17.339Z,96.70
2018-09-14T08:31:20.342Z,97.10
2018-09-14T08:36:23.402Z,96.00
2018-09-14T08:41:26.406Z,95.90
2018-09-14T08:46:29.415Z,94.00
2018-09-14T08:51:32.439Z,94.80
2018-09-14T08:56:35.462Z,94.80
2018-09-14T09:01:38.472Z,93.40
2018-09-14T09:06:41.495Z,93.50
2018-09-14T09:11:44.705Z,93.40
2018-09-14T09:16:47.719Z,93.10
2018-09-14T09:21:50.729Z,91.50
2018-09-14T09:26:53.745Z,92.40
2018-09-14T09:31:56.754Z,92.00
2018-09-14T09:36:59.827Z,92.80
2018-09-14T09:42:02.931Z,92.40
2018-09-14T09:47:05.884Z,91.90
2018-09-14T09:52:08.920Z,92.20
2018-09-14T09:57:11.926Z,91.70
2018-09-14T10:02:20.437Z,91.80
2018-09-14T10:07:32.259Z,92.20
2018-09-14T10:12:35.267Z,92.00
2018-09-14T10:17:38.283Z,91.10
2018-09-14T10:22:41.290Z,90.90
2018-09-14T10:27:44.297Z,90.60
2018-09-14T10:32:47.310Z,90.90
2018-09-14T10:37:50.317Z,90.40
2018-09-14T10:42:53.702Z,90.60
2018-09-14T10:47:56.646Z,89.80
2018-09-14T10:52:59.663Z,90.00
2018-09-14T10:58:02.684Z,90.40
2018-09-14T11:03:05.701Z,90.10
2018-09-14T11:08:08.708Z,90.60
2018-09-14T11:13:11.747Z,89.70
2018-09-14T11:18:14.775Z,90.20
2018-09-14T11:23:17.777Z,90.10
2018-09-14T11:28:20.869Z,89.50
2018-09-14T11:33:23.866Z,90.00
2018-09-14T11:38:26.917Z,89.70
2018-09-14T11:43:29.887Z,89.60
2018-09-14T11:48:32.891Z,89.30
2018-09-14T11:53:35.953Z,88.60
2018-09-14T11:58:39.059Z,87.80
2018-09-14T12:03:42.076Z,86.80
2018-09-14T12:08:45.059Z,87.50
2018-09-14T12:13:48.141Z,86.90
2018-09-14T12:18:51.126Z,85.00
2018-09-14T12:23:54.168Z,84.10
2018-09-14T12:28:57.158Z,81.40
2018-09-14T12:34:00.177Z,80.80
2018-09-14T12:39:03.248Z,80.10
2018-09-14T12:44:06.435Z,78.30
2018-09-14T12:49:09.466Z,79.10
2018-09-14T12:54:12.459Z,76.00
2018-09-14T12:59:15.446Z,74.30
2018-09-14T13:04:18.559Z,74.80
2018-09-14T13:09:21.539Z,75.50
2018-09-14T13:14:24.563Z,76.40
2018-09-14T13:19:28.376Z,74.80
2018-09-14T13:24:31.374Z,74.60
2018-09-14T13:29:35.188Z,73.50
2018-09-14T13:34:38.201Z,70.20
2018-09-14T13:39:41.224Z,72.10
2018-09-14T13:44:44.288Z,70.40
2018-09-14T13:49:47.533Z,71.80
2018-09-14T13:54:50.559Z,73.40
2018-09-14T13:59:53.586Z,70.80
2018-09-14T14:04:56.624Z,71.60
2018-09-14T14:09:59.948Z,72.30
2018-09-14T14:15:02.967Z,70.70
2018-09-14T14:20:06.099Z,71.40
2018-09-14T14:25:09.124Z,71.50
2018-09-14T14:30:12.121Z,71.00
2018-09-14T14:35:15.182Z,70.00
2018-09-14T14:40:18.227Z,69.20
2018-09-14T14:45:21.436Z,68.20
2018-09-14T14:50:24.462Z,63.40
2018-09-14T14:55:27.543Z,60.60
2018-09-14T15:00:30.539Z,59.20
2018-09-14T15:05:33.563Z,61.60
2018-09-14T15:10:36.591Z,59.60
2018-09-14T15:15:39.646Z,62.60
2018-09-14T15:20:49.246Z,61.50
2018-09-14T15:25:52.278Z,62.00
2018-09-14T15:30:55.304Z,59.70
2018-09-14T15:35:58.375Z,57.30
2018-09-14T15:41:01.522Z,57.90
2018-09-14T15:46:04.639Z,59.90
2018-09-14T15:51:07.639Z,62.90
2018-09-14T15:56:10.763Z,63.90
2018-09-14T16:01:13.762Z,63.50
2018-09-14T16:06:16.766Z,60.80
2018-09-14T16:11:19.982Z,60.50
2018-09-14T16:16:23.041Z,59.30
2018-09-14T16:21:26.071Z,60.70
2018-09-14T16:26:29.107Z,62.70
2018-09-14T16:31:32.113Z,64.40
2018-09-14T16:36:35.167Z,59.90
2018-09-14T16:41:38.195Z,59.60
2018-09-14T16:46:41.174Z,60.70
2018-09-14T16:51:44.226Z,61.30
2018-09-14T16:56:47.235Z,62.80
2018-09-14T17:01:50.294Z,64.40
2018-09-14T17:06:53.338Z,65.60
2018-09-14T17:11:57.018Z,66.30
2018-09-14T17:17:00.056Z,68.40
2018-09-14T17:22:03.066Z,69.60
2018-09-14T17:27:06.087Z,70.20
2018-09-14T17:32:09.126Z,70.40
2018-09-14T17:37:12.135Z,71.70
2018-09-14T17:42:15.149Z,73.10
2018-09-14T17:47:18.182Z,73.90
2018-09-14T17:52:21.207Z,74.30
2018-09-14T17:57:24.263Z,75.40
2018-09-14T18:02:27.219Z,75.70
2018-09-14T18:07:30.245Z,76.00
2018-09-14T18:12:33.225Z,76.40
2018-09-14T18:17:36.261Z,76.40
2018-09-14T18:22:39.267Z,77.00
2018-09-14T18:27:43.232Z,77.70
2018-09-14T18:32:46.176Z,78.40
2018-09-14T18:37:49.223Z,79.10
2018-09-14T18:42:52.223Z,80.00
2018-09-14T18:47:55.224Z,81.60
2018-09-14T18:52:58.264Z,81.90
2018-09-14T18:58:01.348Z,83.00
2018-09-14T19:03:04.415Z,84.30
2018-09-14T19:08:07.449Z,86.60
2018-09-14T19:13:10.614Z,87.90
2018-09-14T19:18:13.625Z,89.00
2018-09-14T19:23:16.707Z,89.80
2018-09-14T19:28:19.698Z,90.40
2018-09-14T19:33:22.727Z,90.80
2018-09-14T19:38:26.015Z,91.20
2018-09-14T19:43:29.040Z,91.70
2018-09-14T19:48:32.084Z,92.20
2018-09-14T19:53:35.120Z,92.50
2018-09-14T19:58:38.140Z,92.90
2018-09-14T20:03:41.753Z,93.40
2018-09-14T20:08:44.746Z,93.80
2018-09-14T20:13:47.770Z,94.20
2018-09-14T20:18:50.817Z,94.60
2018-09-14T20:23:53.887Z,94.80
2018-09-14T20:28:56.972Z,95.40
2018-09-14T20:34:00.044Z,95.40
2018-09-14T20:39:03.186Z,95.20
2018-09-14T20:44:06.195Z,95.40
2018-09-14T20:49:09.187Z,95.70
2018-09-14T20:54:12.266Z,95.80
2018-09-14T20:59:15.295Z,95.80
2018-09-14T21:04:18.336Z,95.90
2018-09-14T21:09:21.282Z,95.90
2018-09-14T21:14:24.280Z,96.10
2018-09-14T21:19:27.294Z,96.10
2018-09-14T21:24:30.283Z,96.30
2018-09-14T21:29:33.299Z,96.30
2018-09-14T21:34:36.292Z,96.50
2018-09-14T21:39:39.323Z,96.40
2018-09-14T21:44:42.322Z,96.30
2018-09-14T21:49:45.317Z,96.30
2018-09-14T21:54:48.437Z,96.30
2018-09-14T21:59:51.468Z,96.40
2018-09-14T22:04:54.466Z,96.30
2018-09-14T22:09:58.052Z,96.10
2018-09-14T22:15:01.081Z,96.30
2018-09-14T22:20:04.179Z,96.50
2018-09-14T22:25:07.179Z,96.50
2018-09-14T22:30:10.211Z,96.40
2018-09-14T22:35:13.226Z,96.30
2018-09-14T22:40:16.250Z,96.30
2018-09-14T22:45:19.258Z,96.30
2018-09-14T22:50:22.329Z,96.30
2018-09-14T22:55:25.365Z,96.40
2018-09-14T23:00:33.809Z,96.40
2018-09-14T23:05:36.830Z,96.30
2018-09-14T23:10:39.817Z,96.30
2018-09-14T23:15:48.430Z,96.30
2018-09-14T23:20:51.430Z,96.10
2018-09-14T23:25:56.825Z,96.20
2018-09-14T23:30:59.809Z,96.40
2018-09-14T23:36:02.902Z,96.30
2018-09-14T23:41:05.909Z,96.60
2018-09-14T23:46:09.000Z,96.90
2018-09-14T23:51:12.016Z,96.90
2018-09-14T23:56:15.181Z,96.90
